DESAG EDFE-EDFB
Flight info
| Callsign | DESAG |
|---|---|
| Flight time | 0h 18m |
| Altitude | 3500 |
| Route | DCT |
| Aircraft | PA28/L-VGD/A |
Departure
| Time | 2026-04-20 10:01 |
|---|---|
| Airport | Frankfurt-Egelsbach Airport (EDFE) |
Arrival
| Time | 2026-04-20 10:19 |
|---|---|
| Airport | Reichelsheim Airfield (EDFB) |
| Time | Latitude | Longitude | Altitude | Speed | Heading |
|---|---|---|---|---|---|
| 2026-04-20 09:57 | 49.96202 | 8.64287 | 389 ft | 0 kts | 86° |
| 2026-04-20 09:57 | 49.96189 | 8.64304 | 382 ft | 11 kts | 132° |
| 2026-04-20 09:58 | 49.96184 | 8.64467 | 384 ft | 15 kts | 92° |
| 2026-04-20 09:58 | 49.96185 | 8.64605 | 386 ft | 12 kts | 87° |
| 2026-04-20 09:58 | 49.96188 | 8.64657 | 385 ft | 0 kts | 82° |
| 2026-04-20 09:59 | 49.96198 | 8.64803 | 383 ft | 24 kts | 87° |
| 2026-04-20 10:00 | 49.96122 | 8.64940 | 382 ft | 12 kts | 209° |
| 2026-04-20 10:00 | 49.96117 | 8.64880 | 382 ft | 0 kts | 266° |
| 2026-04-20 10:00 | 49.96110 | 8.64756 | 384 ft | 39 kts | 266° |
| 2026-04-20 10:00 | 49.96078 | 8.64046 | 451 ft | 83 kts | 266° |
| 2026-04-20 10:01 | 49.96040 | 8.63088 | 712 ft | 96 kts | 269° |
| 2026-04-20 10:01 | 49.96011 | 8.61981 | 1016 ft | 107 kts | 265° |
| 2026-04-20 10:01 | 49.95514 | 8.61055 | 1190 ft | 128 kts | 205° |
| 2026-04-20 10:01 | 49.94585 | 8.61062 | 1283 ft | 136 kts | 169° |
| 2026-04-20 10:02 | 49.93693 | 8.61525 | 1332 ft | 137 kts | 135° |
| 2026-04-20 10:02 | 49.93437 | 8.62813 | 1413 ft | 129 kts | 78° |
| 2026-04-20 10:02 | 49.93597 | 8.64192 | 1441 ft | 133 kts | 78° |
| 2026-04-20 10:02 | 49.93612 | 8.65666 | 1377 ft | 140 kts | 87° |
| 2026-04-20 10:03 | 49.93575 | 8.67199 | 1306 ft | 144 kts | 88° |
| 2026-04-20 10:03 | 49.93542 | 8.68750 | 1255 ft | 144 kts | 88° |
| 2026-04-20 10:03 | 49.93538 | 8.70286 | 1246 ft | 141 kts | 88° |
| 2026-04-20 10:03 | 49.93536 | 8.71774 | 1294 ft | 134 kts | 88° |
| 2026-04-20 10:04 | 49.93531 | 8.73225 | 1311 ft | 135 kts | 85° |
| 2026-04-20 10:04 | 49.93478 | 8.74702 | 1310 ft | 140 kts | 92° |
| 2026-04-20 10:04 | 49.93379 | 8.76222 | 1299 ft | 142 kts | 92° |
| 2026-04-20 10:04 | 49.93286 | 8.77732 | 1311 ft | 141 kts | 93° |
| 2026-04-20 10:05 | 49.93191 | 8.79262 | 1308 ft | 143 kts | 91° |
| 2026-04-20 10:05 | 49.93097 | 8.80751 | 1435 ft | 134 kts | 92° |
| 2026-04-20 10:05 | 49.93150 | 8.82127 | 1565 ft | 123 kts | 60° |
| 2026-04-20 10:05 | 49.93612 | 8.83223 | 1724 ft | 126 kts | 51° |
| 2026-04-20 10:06 | 49.94099 | 8.84398 | 1897 ft | 132 kts | 51° |
| 2026-04-20 10:06 | 49.94615 | 8.85609 | 2066 ft | 136 kts | 51° |
| 2026-04-20 10:06 | 49.95201 | 8.86776 | 2220 ft | 137 kts | 45° |
| 2026-04-20 10:06 | 49.95809 | 8.87880 | 2426 ft | 133 kts | 47° |
| 2026-04-20 10:07 | 49.96393 | 8.88959 | 2681 ft | 129 kts | 45° |
| 2026-04-20 10:07 | 49.96983 | 8.89983 | 2936 ft | 125 kts | 43° |
| 2026-04-20 10:07 | 49.97575 | 8.90962 | 3196 ft | 124 kts | 43° |
| 2026-04-20 10:07 | 49.98182 | 8.91954 | 3309 ft | 133 kts | 41° |
| 2026-04-20 10:08 | 49.98846 | 8.93026 | 3315 ft | 142 kts | 43° |
| 2026-04-20 10:08 | 49.99542 | 8.94147 | 3323 ft | 146 kts | 43° |
| 2026-04-20 10:08 | 50.00251 | 8.95297 | 3322 ft | 148 kts | 43° |
| 2026-04-20 10:08 | 50.00975 | 8.96458 | 3260 ft | 152 kts | 43° |
| 2026-04-20 10:09 | 50.01725 | 8.97652 | 3160 ft | 156 kts | 42° |
| 2026-04-20 10:09 | 50.02486 | 8.98872 | 3062 ft | 157 kts | 41° |
| 2026-04-20 10:09 | 50.03294 | 8.99956 | 3004 ft | 150 kts | 21° |
| 2026-04-20 10:09 | 50.04276 | 8.99920 | 3004 ft | 144 kts | 343° |
| 2026-04-20 10:10 | 50.05234 | 8.99457 | 3010 ft | 145 kts | 342° |
| 2026-04-20 10:10 | 50.06194 | 8.98986 | 3009 ft | 145 kts | 342° |
| 2026-04-20 10:10 | 50.07157 | 8.98503 | 3008 ft | 144 kts | 342° |
| 2026-04-20 10:10 | 50.08103 | 8.98032 | 3011 ft | 141 kts | 342° |
| 2026-04-20 10:11 | 50.09043 | 8.97577 | 3010 ft | 141 kts | 342° |
| 2026-04-20 10:11 | 50.09972 | 8.97120 | 3008 ft | 139 kts | 342° |
| 2026-04-20 10:11 | 50.10897 | 8.96672 | 3006 ft | 139 kts | 346° |
| 2026-04-20 10:11 | 50.11838 | 8.96336 | 3007 ft | 139 kts | 347° |
| 2026-04-20 10:12 | 50.12781 | 8.95986 | 3005 ft | 139 kts | 345° |
| 2026-04-20 10:12 | 50.13721 | 8.95623 | 3005 ft | 138 kts | 345° |
| 2026-04-20 10:12 | 50.14340 | 8.95382 | 3007 ft | 138 kts | 345° |
| 2026-04-20 10:12 | 50.15273 | 8.95017 | 3009 ft | 138 kts | 346° |
| 2026-04-20 10:13 | 50.16203 | 8.94653 | 3009 ft | 138 kts | 345° |
| 2026-04-20 10:13 | 50.17432 | 8.94171 | 3003 ft | 137 kts | 345° |
| 2026-04-20 10:13 | 50.18361 | 8.93807 | 3002 ft | 138 kts | 346° |
| 2026-04-20 10:13 | 50.19299 | 8.93439 | 3007 ft | 141 kts | 346° |
| 2026-04-20 10:14 | 50.19946 | 8.93185 | 3007 ft | 142 kts | 346° |
| 2026-04-20 10:14 | 50.20901 | 8.92809 | 3010 ft | 141 kts | 345° |
| 2026-04-20 10:14 | 50.21815 | 8.92452 | 3003 ft | 134 kts | 345° |
| 2026-04-20 10:14 | 50.22713 | 8.92098 | 2862 ft | 134 kts | 345° |
| 2026-04-20 10:15 | 50.23602 | 8.91749 | 2585 ft | 124 kts | 345° |
| 2026-04-20 10:15 | 50.24389 | 8.91439 | 2260 ft | 111 kts | 346° |
| 2026-04-20 10:15 | 50.25104 | 8.91159 | 2022 ft | 100 kts | 346° |
| 2026-04-20 10:15 | 50.25735 | 8.90899 | 1816 ft | 88 kts | 345° |
| 2026-04-20 10:16 | 50.26343 | 8.90639 | 1685 ft | 96 kts | 345° |
| 2026-04-20 10:16 | 50.27004 | 8.90263 | 1557 ft | 105 kts | 335° |
| 2026-04-20 10:16 | 50.27678 | 8.89796 | 1440 ft | 105 kts | 336° |
| 2026-04-20 10:16 | 50.28349 | 8.89339 | 1322 ft | 107 kts | 337° |
| 2026-04-20 10:17 | 50.29048 | 8.88853 | 1209 ft | 110 kts | 336° |
| 2026-04-20 10:17 | 50.29713 | 8.88425 | 1212 ft | 92 kts | 341° |
| 2026-04-20 10:17 | 50.30267 | 8.88231 | 1204 ft | 76 kts | 354° |
| 2026-04-20 10:17 | 50.30770 | 8.88167 | 1060 ft | 70 kts | 351° |
| 2026-04-20 10:18 | 50.31257 | 8.88085 | 991 ft | 71 kts | 349° |
| 2026-04-20 10:18 | 50.31740 | 8.88023 | 883 ft | 68 kts | 352° |
| 2026-04-20 10:18 | 50.32206 | 8.87941 | 823 ft | 68 kts | 353° |
| 2026-04-20 10:18 | 50.32688 | 8.87921 | 653 ft | 69 kts | 353° |
| 2026-04-20 10:19 | 50.33163 | 8.87900 | 455 ft | 69 kts | 355° |
| 2026-04-20 10:19 | 50.33603 | 8.87886 | 405 ft | 55 kts | 355° |
| 2026-04-20 10:19 | 50.33930 | 8.87871 | 407 ft | 39 kts | 357° |
| 2026-04-20 10:19 | 50.34025 | 8.87866 | 410 ft | 0 kts | 357° |